Time;durP1;ratioP1;P1;durP2;ratioP2;P2;SDS_P1;SDS_P2;PMS_P1;PMS_P2;Temp;Humidity;BMP_temperature;BMP_pressure;BME280_temperature;BME280_humidity;BME280_pressure;Samples;Min_cycle;Max_cycle;Signal;HPM_P1;HPM_P2
2022/07/19 00:00:26;;;;;;;7.93;3.60;;;21.20;1.00;;;;;;5110796;28;20170;-75
2022/07/19 00:02:53;;;;;;;7.70;4.27;;;21.20;1.00;;;;;;5108690;28;20224;-75
2022/07/19 00:05:19;;;;;;;6.90;4.10;;;21.20;1.00;;;;;;5109378;28;20202;-75
2022/07/19 00:07:45;;;;;;;5.67;4.20;;;21.10;1.00;;;;;;5109482;28;20925;-75
2022/07/19 00:10:12;;;;;;;9.57;4.13;;;21.10;1.00;;;;;;5108931;28;20456;-75
2022/07/19 00:12:39;;;;;;;11.70;4.90;;;21.10;1.00;;;;;;5110464;28;20938;-75
2022/07/19 00:15:07;;;;;;;7.40;3.80;;;21.10;1.00;;;;;;5096306;27;20460;-75
2022/07/19 00:17:33;;;;;;;10.10;4.00;;;21.20;1.00;;;;;;5090382;28;20424;-75
2022/07/19 00:19:59;;;;;;;8.30;4.47;;;21.20;1.00;;;;;;5107939;28;20428;-75
2022/07/19 00:22:25;;;;;;;11.50;4.30;;;21.10;1.00;;;;;;5087383;28;20561;-75
2022/07/19 00:24:50;;;;;;;6.23;4.20;;;21.10;1.00;;;;;;5108236;28;20175;-75
2022/07/19 00:27:16;;;;;;;8.83;4.37;;;20.80;1.00;;;;;;5083175;28;20220;-75
2022/07/19 00:29:41;;;;;;;5.43;3.97;;;21.10;1.00;;;;;;5107757;28;20723;-75
2022/07/19 00:32:07;;;;;;;5.03;3.77;;;21.00;1.00;;;;;;5108051;28;20304;-75
2022/07/19 00:34:32;;;;;;;5.67;3.70;;;21.00;1.00;;;;;;5110458;28;20202;-76
2022/07/19 00:36:58;;;;;;;6.13;4.20;;;;;;;;;;5112611;28;20175;-75
2022/07/19 00:39:24;;;;;;;7.67;4.00;;;21.00;1.00;;;;;;5094044;28;20190;-75
2022/07/19 00:41:49;;;;;;;6.20;4.07;;;21.00;1.00;;;;;;5111511;28;20278;-75
2022/07/19 00:44:15;;;;;;;5.27;3.93;;;21.00;1.00;;;;;;5090975;28;20163;-75
2022/07/19 00:46:40;;;;;;;8.20;4.30;;;21.00;1.00;;;;;;5113690;28;20213;-75
2022/07/19 00:49:06;;;;;;;5.93;4.13;;;21.10;1.00;;;;;;5093924;28;20242;-74
2022/07/19 00:51:34;;;;;;;5.80;4.03;;;21.00;1.00;;;;;;5093947;28;20171;-75
2022/07/19 00:54:02;;;;;;;5.07;3.93;;;21.00;1.00;;;;;;5074814;28;20214;-75
2022/07/19 00:56:31;;;;;;;5.50;4.00;;;21.00;1.00;;;;;;5112305;28;20490;-75
2022/07/19 00:58:59;;;;;;;7.13;4.50;;;21.00;1.00;;;;;;5110868;28;20440;-75
2022/07/19 01:01:24;;;;;;;15.83;4.20;;;21.00;1.00;;;;;;5091795;28;20454;-75
2022/07/19 01:03:51;;;;;;;7.60;3.80;;;21.00;1.00;;;;;;5093912;28;20409;-75
2022/07/19 01:06:17;;;;;;;5.40;4.20;;;20.80;1.00;;;;;;5093342;28;20214;-75
2022/07/19 01:08:43;;;;;;;4.90;3.33;;;20.60;1.00;;;;;;5091514;28;20481;-76
2022/07/19 01:11:08;;;;;;;5.30;4.20;;;20.50;1.00;;;;;;5109115;28;20327;-76
2022/07/19 01:13:34;;;;;;;6.87;3.87;;;20.40;1.00;;;;;;5109685;28;20225;-75
2022/07/19 01:16:00;;;;;;;5.83;4.20;;;20.40;1.00;;;;;;5109663;28;20632;-75
2022/07/19 01:18:25;;;;;;;7.40;3.67;;;20.40;1.00;;;;;;5110230;28;20197;-75
2022/07/19 01:20:51;;;;;;;7.97;4.50;;;20.30;1.00;;;;;;5109269;28;20357;-76
2022/07/19 01:23:17;;;;;;;4.83;4.10;;;20.20;1.00;;;;;;5089757;28;20652;-75
2022/07/19 01:25:43;;;;;;;6.40;3.77;;;20.10;1.00;;;;;;5108539;28;20565;-75
2022/07/19 01:28:09;;;;;;;5.83;3.80;;;20.00;1.00;;;;;;5090645;28;20359;-75
2022/07/19 01:30:35;;;;;;;5.27;3.90;;;20.00;1.00;;;;;;5107763;28;20178;-75
2022/07/19 01:33:01;;;;;;;7.70;4.10;;;20.00;1.00;;;;;;5081366;28;20405;-75
2022/07/19 01:35:28;;;;;;;5.77;4.00;;;20.00;1.00;;;;;;5106559;28;20821;-75
2022/07/19 01:37:55;;;;;;;6.23;3.53;;;20.00;1.00;;;;;;5109236;28;20198;-76
2022/07/19 01:40:22;;;;;;;5.60;3.80;;;20.10;1.00;;;;;;5109657;28;20961;-74
2022/07/19 01:42:48;;;;;;;6.10;3.90;;;20.20;1.00;;;;;;5110296;28;20415;-75
2022/07/19 01:45:15;;;;;;;5.50;3.63;;;20.10;1.00;;;;;;5106850;28;20486;-75
2022/07/19 01:47:41;;;;;;;5.93;3.90;;;20.00;1.00;;;;;;5091377;28;20603;-75
2022/07/19 01:50:11;;;;;;;5.50;3.87;;;20.10;1.00;;;;;;5110562;28;20875;-75
2022/07/19 01:52:37;;;;;;;5.70;3.60;;;;;;;;;;5109756;28;20440;-74
2022/07/19 01:55:03;;;;;;;6.57;4.10;;;20.10;1.00;;;;;;5105579;28;20483;-75
2022/07/19 01:57:29;;;;;;;8.43;3.67;;;20.10;1.00;;;;;;5098767;28;20269;-75
2022/07/19 01:59:55;;;;;;;5.70;3.87;;;20.10;1.00;;;;;;5089427;28;21033;-74
2022/07/19 02:02:21;;;;;;;5.40;3.90;;;20.20;1.00;;;;;;5089054;28;20545;-75
2022/07/19 02:04:46;;;;;;;6.67;3.87;;;20.00;1.00;;;;;;5109887;28;20183;-75
2022/07/19 02:07:12;;;;;;;9.43;4.20;;;20.20;1.00;;;;;;5111957;28;20738;-75
2022/07/19 02:09:38;;;;;;;6.63;4.10;;;20.10;1.00;;;;;;5108814;28;20297;-75
2022/07/19 02:12:03;;;;;;;4.83;3.70;;;20.00;1.00;;;;;;5110700;28;20251;-75
2022/07/19 02:14:29;;;;;;;8.90;3.77;;;20.00;1.00;;;;;;5109004;28;20179;-75
2022/07/19 02:16:54;;;;;;;5.77;4.23;;;20.00;1.00;;;;;;5107659;28;20251;-75
2022/07/19 02:19:21;;;;;;;6.07;4.30;;;20.00;1.00;;;;;;5105387;28;20524;-75
2022/07/19 02:21:46;;;;;;;7.37;4.17;;;20.00;1.00;;;;;;5090796;28;20178;-75
2022/07/19 02:24:12;;;;;;;6.07;4.03;;;19.90;1.00;;;;;;5110933;28;20408;-74
2022/07/19 02:26:39;;;;;;;6.00;3.93;;;19.90;1.00;;;;;;5091236;28;20182;-75
2022/07/19 02:29:05;;;;;;;6.10;4.10;;;19.80;1.00;;;;;;5109544;28;20718;-74
2022/07/19 02:31:30;;;;;;;10.03;4.27;;;19.70;1.00;;;;;;5108511;28;20417;-75
2022/07/19 02:33:56;;;;;;;11.33;4.27;;;19.60;1.00;;;;;;5091033;28;20527;-74
2022/07/19 02:36:21;;;;;;;6.10;4.20;;;19.60;1.00;;;;;;5109811;28;20265;-75
2022/07/19 02:38:47;;;;;;;6.20;4.10;;;19.40;1.00;;;;;;5108491;28;20724;-75
2022/07/19 02:41:13;;;;;;;7.67;4.50;;;19.30;1.00;;;;;;5108988;28;20312;-75
2022/07/19 02:43:39;;;;;;;5.23;4.17;;;19.20;1.00;;;;;;5090546;28;20581;-75
2022/07/19 02:46:05;;;;;;;5.70;4.13;;;19.20;1.00;;;;;;5090749;28;20495;-75
2022/07/19 02:48:30;;;;;;;7.77;4.53;;;19.10;1.00;;;;;;5107004;28;20932;-74
2022/07/19 02:50:56;;;;;;;6.10;3.97;;;19.00;1.00;;;;;;5109069;28;20590;-76
2022/07/19 02:53:22;;;;;;;8.43;4.50;;;19.00;1.00;;;;;;5089584;28;20170;-75
2022/07/19 02:55:47;;;;;;;10.60;4.27;;;18.90;1.00;;;;;;5109063;28;20221;-75
2022/07/19 02:58:13;;;;;;;8.90;4.33;;;18.90;1.00;;;;;;5109727;28;20190;-74
2022/07/19 03:00:38;;;;;;;6.33;4.27;;;18.90;1.00;;;;;;5109390;28;20167;-75
2022/07/19 03:05:48;;;;;;;11.03;4.90;;;19.00;1.00;;;;;;5108571;28;20243;-74
2022/07/19 03:08:14;;;;;;;7.70;4.50;;;19.00;1.00;;;;;;5102441;28;20437;-75
2022/07/19 03:10:40;;;;;;;11.73;4.70;;;18.90;1.00;;;;;;5106766;28;20413;-75
2022/07/19 03:13:05;;;;;;;7.97;4.67;;;18.90;1.00;;;;;;5108404;28;20177;-75
2022/07/19 03:15:31;;;;;;;7.73;4.83;;;18.80;1.00;;;;;;5107357;28;20218;-74
2022/07/19 03:17:56;;;;;;;9.63;5.07;;;18.80;1.00;;;;;;5090728;28;20187;-74
2022/07/19 03:20:22;;;;;;;6.03;4.97;;;18.80;1.00;;;;;;5107494;28;20171;-75
2022/07/19 03:22:48;;;;;;;8.10;4.73;;;18.90;1.00;;;;;;5108640;28;20189;-74
2022/07/19 03:25:14;;;;;;;9.63;4.73;;;18.80;1.00;;;;;;5107569;28;20197;-74
2022/07/19 03:27:39;;;;;;;6.93;4.50;;;18.60;1.00;;;;;;5090614;28;20174;-74
2022/07/19 03:30:06;;;;;;;12.00;5.13;;;18.50;1.00;;;;;;5106516;28;20653;-74
2022/07/19 03:32:31;;;;;;;13.40;4.23;;;18.30;1.00;;;;;;5106966;28;20258;-74
2022/07/19 03:34:57;;;;;;;9.43;4.40;;;18.10;1.00;;;;;;5088300;28;20531;-75
2022/07/19 03:37:23;;;;;;;9.53;4.47;;;18.00;1.00;;;;;;5107819;28;20171;-75
2022/07/19 03:39:48;;;;;;;5.70;4.10;;;18.00;1.00;;;;;;5106068;28;20182;-75
2022/07/19 03:42:14;;;;;;;6.00;4.27;;;18.10;1.00;;;;;;5088845;28;20178;-74
2022/07/19 03:44:39;;;;;;;8.63;4.37;;;18.00;1.00;;;;;;5105611;28;20217;-74
2022/07/19 03:47:05;;;;;;;7.33;4.60;;;18.00;1.00;;;;;;5106763;28;20560;-74
2022/07/19 03:49:30;;;;;;;7.23;4.57;;;18.10;1.00;;;;;;5108232;28;20310;-74
2022/07/19 03:51:56;;;;;;;6.80;4.67;;;18.10;1.00;;;;;;5106449;28;20186;-74
2022/07/19 03:54:22;;;;;;;7.67;4.60;;;18.20;1.00;;;;;;5106042;28;20250;-74
2022/07/19 03:56:47;;;;;;;7.60;5.03;;;18.20;1.00;;;;;;5088574;28;20602;-75
2022/07/19 03:59:13;;;;;;;7.17;4.50;;;18.30;1.00;;;;;;5089356;28;20645;-74
2022/07/19 04:01:38;;;;;;;6.80;4.63;;;18.30;1.00;;;;;;5109458;28;20178;-74
2022/07/19 04:04:05;;;;;;;5.47;4.70;;;18.30;1.00;;;;;;5112351;28;20174;-74
2022/07/19 04:06:30;;;;;;;7.37;4.70;;;18.40;1.00;;;;;;5108689;28;20179;-74
2022/07/19 04:08:56;;;;;;;6.40;4.30;;;18.40;1.00;;;;;;5110063;28;20796;-74
2022/07/19 04:11:22;;;;;;;8.70;4.60;;;18.20;1.00;;;;;;5109240;28;20189;-74
2022/07/19 04:13:47;;;;;;;5.97;4.60;;;18.30;1.00;;;;;;5110247;28;20182;-73
2022/07/19 04:16:13;;;;;;;9.37;4.57;;;18.10;1.00;;;;;;5091292;28;20230;-74
2022/07/19 04:18:38;;;;;;;10.97;4.67;;;18.20;1.00;;;;;;5092917;28;20203;-74
2022/07/19 04:21:05;;;;;;;5.20;4.70;;;18.10;1.00;;;;;;5110570;28;20483;-74
2022/07/19 04:23:30;;;;;;;5.30;4.80;;;18.10;1.00;;;;;;5112264;28;20410;-75
2022/07/19 04:25:56;;;;;;;11.90;4.83;;;18.10;1.00;;;;;;5093794;28;20516;-75
2022/07/19 04:28:21;;;;;;;7.67;4.43;;;17.90;1.00;;;;;;5094150;28;20206;-74
2022/07/19 04:30:47;;;;;;;10.30;4.37;;;18.00;1.00;;;;;;5110936;28;20312;-74
2022/07/19 04:33:14;;;;;;;14.63;4.70;;;18.10;1.00;;;;;;5111687;28;20652;-74
2022/07/19 04:35:40;;;;;;;6.30;4.10;;;18.20;1.00;;;;;;5111207;28;20198;-75
2022/07/19 04:38:05;;;;;;;9.27;4.40;;;18.20;1.00;;;;;;5110771;28;20448;-74
2022/07/19 04:40:31;;;;;;;7.80;4.80;;;18.30;1.00;;;;;;5112423;28;20167;-74
2022/07/19 04:42:57;;;;;;;8.40;4.80;;;18.40;1.00;;;;;;5092080;28;20192;-75
2022/07/19 04:45:22;;;;;;;9.17;5.27;;;18.40;1.00;;;;;;5111027;28;20182;-75
2022/07/19 04:47:48;;;;;;;9.30;5.23;;;18.70;1.00;;;;;;5111123;28;20230;-74
2022/07/19 04:50:13;;;;;;;6.77;5.40;;;19.00;1.00;;;;;;5112655;28;20190;-74
2022/07/19 04:52:39;;;;;;;6.93;5.07;;;18.70;1.00;;;;;;5092717;28;20167;-74
2022/07/19 04:55:05;;;;;;;11.63;5.60;;;18.80;1.00;;;;;;5111673;28;20507;-75
2022/07/19 04:57:30;;;;;;;8.33;5.33;;;19.00;1.00;;;;;;5111496;28;20171;-75
2022/07/19 04:59:56;;;;;;;7.50;4.63;;;19.10;1.00;;;;;;5111527;28;20423;-74
2022/07/19 05:02:21;;;;;;;13.43;5.00;;;19.20;1.00;;;;;;5110673;28;20175;-74
2022/07/19 05:04:47;;;;;;;7.80;4.90;;;19.30;1.00;;;;;;5112155;28;20179;-75
2022/07/19 05:07:12;;;;;;;8.83;5.30;;;19.40;1.00;;;;;;5110187;28;20171;-74
2022/07/19 05:09:38;;;;;;;10.00;5.10;;;19.40;1.00;;;;;;5111494;28;20199;-75
2022/07/19 05:12:07;;;;;;;7.30;5.20;;;19.70;1.00;;;;;;5110643;28;20179;-74
2022/07/19 05:14:33;;;;;;;8.17;5.10;;;19.70;1.00;;;;;;5089302;28;20186;-75
2022/07/19 05:16:58;;;;;;;11.47;4.77;;;19.90;1.00;;;;;;5109201;28;20431;-75
2022/07/19 05:19:24;;;;;;;13.80;4.70;;;20.00;1.00;;;;;;5110906;28;20217;-75
2022/07/19 05:21:50;;;;;;;9.60;4.77;;;20.10;1.00;;;;;;5110428;28;20202;-75
2022/07/19 05:24:16;;;;;;;4.97;4.43;;;20.30;1.00;;;;;;5109279;28;20377;-75
2022/07/19 05:26:41;;;;;;;6.33;5.00;;;20.40;1.00;;;;;;5110307;28;20591;-75
2022/07/19 05:29:08;;;;;;;8.97;5.10;;;;;;;;;;5090625;28;20209;-75
2022/07/19 05:31:33;;;;;;;8.23;4.30;;;20.70;1.00;;;;;;5089795;28;20244;-75
2022/07/19 05:33:59;;;;;;;10.90;4.83;;;20.80;1.00;;;;;;5109702;28;20428;-75
2022/07/19 05:36:24;;;;;;;10.50;4.90;;;21.00;1.00;;;;;;5109896;28;20206;-75
2022/07/19 05:38:50;;;;;;;11.77;5.50;;;21.20;1.00;;;;;;5107585;28;20609;-74
2022/07/19 05:41:16;;;;;;;8.13;4.90;;;21.30;1.00;;;;;;5107751;28;20178;-74
2022/07/19 05:43:43;;;;;;;9.37;5.17;;;21.50;1.00;;;;;;5106635;28;20218;-75
2022/07/19 05:46:09;;;;;;;6.40;4.80;;;;;;;;;;5088117;28;20436;-75
2022/07/19 05:48:34;;;;;;;8.37;4.83;;;21.70;1.00;;;;;;5106656;28;20466;-75
2022/07/19 05:51:00;;;;;;;8.50;5.43;;;21.90;1.00;;;;;;5089910;28;20178;-74
2022/07/19 05:53:27;;;;;;;10.43;5.57;;;22.10;1.00;;;;;;5107079;28;20183;-75
2022/07/19 05:55:53;;;;;;;14.43;5.70;;;22.20;1.00;;;;;;5109278;28;20221;-74
2022/07/19 05:58:18;;;;;;;7.57;5.50;;;22.30;1.00;;;;;;5108586;28;20436;-75
2022/07/19 06:03:44;;;;;;;7.60;4.80;;;;;;;;;;5059693;28;20319;-75
2022/07/19 06:06:10;;;;;;;8.50;4.20;;;22.90;1.00;;;;;;5103331;27;20512;-75
2022/07/19 06:08:36;;;;;;;7.63;4.57;;;23.20;1.00;;;;;;5090430;28;20865;-75
2022/07/19 06:11:01;;;;;;;10.37;4.37;;;23.30;1.00;;;;;;5106719;28;20459;-75
2022/07/19 06:13:27;;;;;;;41.50;9.03;;;;;;;;;;5108650;28;20182;-75
2022/07/19 06:15:53;;;;;;;14.97;3.70;;;23.70;1.00;;;;;;5105419;28;20198;-75
2022/07/19 06:18:18;;;;;;;8.73;4.50;;;24.00;1.00;;;;;;5104677;28;20194;-75
2022/07/19 06:20:44;;;;;;;7.10;4.27;;;24.30;1.00;;;;;;5090193;28;20170;-75
2022/07/19 06:23:10;;;;;;;14.67;4.90;;;24.40;1.00;;;;;;5107287;28;20197;-75
2022/07/19 06:25:35;;;;;;;6.70;4.50;;;24.50;1.00;;;;;;5088270;28;20175;-75
2022/07/19 06:28:01;;;;;;;8.63;4.40;;;24.70;1.00;;;;;;5108306;28;20494;-78
2022/07/19 06:30:26;;;;;;;5.87;3.50;;;24.80;1.00;;;;;;5087385;28;20179;-77
2022/07/19 06:32:52;;;;;;;5.57;3.53;;;25.00;1.00;;;;;;5106246;28;20580;-78
2022/07/19 06:35:18;;;;;;;6.17;3.37;;;25.30;1.00;;;;;;5106287;28;20198;-77
2022/07/19 06:37:43;;;;;;;7.60;3.53;;;25.50;1.00;;;;;;5107086;28;20187;-77
2022/07/19 06:40:09;;;;;;;4.57;3.10;;;25.60;1.00;;;;;;5106200;28;20171;-81
2022/07/19 06:42:34;;;;;;;5.83;3.47;;;25.80;1.00;;;;;;5106763;28;20216;-79
2022/07/19 06:45:01;;;;;;;5.00;3.80;;;26.10;1.00;;;;;;5105811;28;20174;-79
2022/07/19 06:47:28;;;;;;;5.03;3.20;;;26.30;1.00;;;;;;5106618;28;20181;-80
2022/07/19 06:49:53;;;;;;;9.53;3.27;;;26.40;1.00;;;;;;5106318;28;20736;-78
2022/07/19 06:52:19;;;;;;;6.03;3.60;;;26.60;1.00;;;;;;5103793;28;20205;-77
2022/07/19 06:54:44;;;;;;;6.90;3.63;;;26.80;1.00;;;;;;5106448;28;20186;-77
2022/07/19 06:57:10;;;;;;;6.20;3.70;;;26.90;1.00;;;;;;5089117;28;20181;-77
2022/07/19 06:59:36;;;;;;;5.50;3.00;;;27.00;1.00;;;;;;5087437;28;20267;-79
2022/07/19 07:02:03;;;;;;;7.43;3.27;;;27.10;1.00;;;;;;5106956;28;20247;-78
2022/07/19 07:04:28;;;;;;;4.57;3.10;;;27.30;1.00;;;;;;5106376;28;20216;-77
2022/07/19 07:06:54;;;;;;;5.60;3.47;;;27.50;1.00;;;;;;5083892;28;20179;-77
2022/07/19 07:09:20;;;;;;;5.90;3.40;;;27.60;1.00;;;;;;5106139;28;20189;-77
2022/07/19 07:11:45;;;;;;;9.80;3.17;;;27.80;1.00;;;;;;5088706;28;20188;-77
2022/07/19 07:14:11;;;;;;;5.50;3.50;;;28.00;1.00;;;;;;5086995;28;20237;-79
2022/07/19 07:16:36;;;;;;;6.80;3.63;;;28.00;1.00;;;;;;5103778;28;20202;-77
2022/07/19 07:19:02;;;;;;;7.90;3.30;;;28.10;1.00;;;;;;5105114;28;20285;-77
2022/07/19 07:21:27;;;;;;;9.27;3.30;;;28.40;1.00;;;;;;5104842;28;20223;-77
2022/07/19 07:23:53;;;;;;;6.47;3.10;;;28.80;1.00;;;;;;5103743;28;20183;-78
2022/07/19 07:26:18;;;;;;;7.90;3.30;;;28.70;1.00;;;;;;5100407;28;20198;-78
2022/07/19 07:28:44;;;;;;;8.60;3.37;;;28.90;1.00;;;;;;5104993;28;20199;-79
2022/07/19 07:31:09;;;;;;;4.33;3.30;;;29.00;1.00;;;;;;5105195;28;20575;-77
2022/07/19 07:33:35;;;;;;;5.07;3.13;;;29.20;1.00;;;;;;5105627;28;20186;-77
2022/07/19 07:36:00;;;;;;;7.13;3.30;;;29.40;1.00;;;;;;5106913;28;20199;-76
2022/07/19 07:38:26;;;;;;;3.80;3.00;;;29.50;1.00;;;;;;5107920;28;20194;-74
2022/07/19 07:40:51;;;;;;;5.07;3.10;;;29.60;1.00;;;;;;5109839;28;20423;-78
2022/07/19 07:43:17;;;;;;;6.60;3.40;;;30.20;1.00;;;;;;5091225;28;20206;-74
2022/07/19 07:45:42;;;;;;;4.28;3.10;;;30.00;1.00;;;;;;5088786;28;20227;-75
2022/07/19 07:48:08;;;;;;;4.10;3.22;;;30.10;1.00;;;;;;5084452;28;20209;-75
2022/07/19 07:50:34;;;;;;;5.05;3.10;;;30.30;1.00;;;;;;5108281;28;20210;-75
2022/07/19 07:52:59;;;;;;;3.97;3.20;;;30.50;1.00;;;;;;5107866;28;20184;-75
2022/07/19 07:55:25;;;;;;;5.20;3.10;;;30.70;1.00;;;;;;5084776;28;20267;-75
2022/07/19 07:57:50;;;;;;;3.80;3.20;;;30.70;1.00;;;;;;5111726;28;20269;-75
2022/07/19 08:00:16;;;;;;;4.18;2.97;;;30.60;1.00;;;;;;5090716;28;20178;-75
2022/07/19 08:02:45;;;;;;;5.80;3.13;;;30.90;1.00;;;;;;5106099;28;20227;-75
2022/07/19 08:05:11;;;;;;;7.45;3.00;;;31.10;1.00;;;;;;5107686;28;20205;-75
2022/07/19 08:07:38;;;;;;;4.60;3.35;;;31.40;1.00;;;;;;5108284;28;20236;-75
2022/07/19 08:10:06;;;;;;;7.70;3.30;;;31.50;1.00;;;;;;5092784;28;20210;-75
2022/07/19 08:12:32;;;;;;;6.47;3.30;;;31.60;1.00;;;;;;5084620;28;20190;-75
2022/07/19 08:14:57;;;;;;;5.05;2.83;;;31.80;1.00;;;;;;5108519;28;20269;-75
2022/07/19 08:17:23;;;;;;;3.95;3.20;;;;;;;;;;5090368;28;20262;-75
2022/07/19 08:19:49;;;;;;;7.35;3.05;;;31.80;1.00;;;;;;5107362;28;20186;-75
2022/07/19 08:22:15;;;;;;;8.60;3.47;;;32.00;1.00;;;;;;5088875;28;20621;-76
2022/07/19 08:24:42;;;;;;;3.95;3.33;;;31.80;1.00;;;;;;5110437;28;20227;-74
2022/07/19 08:27:07;;;;;;;5.22;3.22;;;31.90;1.00;;;;;;5110440;28;20223;-75
2022/07/19 08:29:33;;;;;;;4.82;3.00;;;31.80;1.00;;;;;;5111158;28;20221;-75
2022/07/19 08:31:58;;;;;;;8.38;3.42;;;31.70;1.00;;;;;;5108428;28;20182;-75
2022/07/19 08:34:24;;;;;;;6.78;3.75;;;32.20;1.00;;;;;;5087596;28;20190;-75
2022/07/19 08:36:50;;;;;;;5.93;3.20;;;;;;;;;;5109231;28;20210;-75
2022/07/19 08:39:16;;;;;;;6.45;3.25;;;;;;;;;;5109658;28;20373;-75
2022/07/19 08:41:44;;;;;;;6.72;3.40;;;33.20;1.00;;;;;;5109140;28;20625;-75
2022/07/19 08:44:11;;;;;;;5.68;3.13;;;33.60;1.00;;;;;;5109277;28;20171;-75
2022/07/19 08:46:36;;;;;;;4.97;2.85;;;33.70;1.00;;;;;;5107344;28;20182;-75
2022/07/19 08:49:02;;;;;;;6.22;3.50;;;34.90;1.00;;;;;;5110024;28;20236;-76
2022/07/19 08:51:28;;;;;;;4.13;2.90;;;34.40;1.00;;;;;;5108555;28;20187;-75
2022/07/19 08:53:54;;;;;;;7.78;3.53;;;34.90;1.00;;;;;;5110097;28;20167;-75
2022/07/19 08:59:05;;;;;;;6.07;3.70;;;35.00;1.00;;;;;;5108853;28;20194;-75
2022/07/19 09:01:30;;;;;;;6.03;3.60;;;34.90;1.00;;;;;;5090889;28;20178;-75
2022/07/19 09:04:11;;;;;;;7.68;3.03;;;35.40;1.00;;;;;;5093660;28;20257;-76
2022/07/19 09:06:48;;;;;;;6.03;3.67;;;36.60;1.00;;;;;;5093359;28;20228;-76
2022/07/19 09:09:17;;;;;;;7.78;2.90;;;37.50;1.00;;;;;;5112540;27;20339;-77
2022/07/19 09:11:50;;;;;;;4.82;3.10;;;38.50;1.00;;;;;;5108301;28;20182;-76
2022/07/19 09:14:27;;;;;;;5.28;3.08;;;39.70;1.00;;;;;;5094175;28;20644;-76
2022/07/19 09:17:02;;;;;;;4.25;3.10;;;40.30;1.00;;;;;;5109548;28;20213;-76
2022/07/19 09:19:34;;;;;;;5.85;2.78;;;40.40;1.00;;;;;;5091883;28;20194;-76
2022/07/19 09:22:02;;;;;;;4.95;2.80;;;40.60;1.00;;;;;;5088335;28;20644;-76
2022/07/19 09:24:33;;;;;;;7.28;3.28;;;41.40;1.00;;;;;;5106502;28;20198;-77
2022/07/19 09:27:07;;;;;;;5.68;2.63;;;42.10;1.00;;;;;;5107500;28;20183;-77
2022/07/19 09:29:35;;;;;;;4.88;2.53;;;41.70;1.00;;;;;;5105927;28;20672;-76
2022/07/19 09:32:04;;;;;;;7.95;2.60;;;42.00;1.00;;;;;;5108963;28;20239;-77
2022/07/19 09:34:33;;;;;;;5.57;2.58;;;43.40;1.00;;;;;;5110821;28;20586;-77
2022/07/19 09:37:15;;;;;;;5.32;2.72;;;43.40;1.00;;;;;;5109662;28;20222;-76
2022/07/19 09:39:44;;;;;;;4.03;2.50;;;43.70;1.00;;;;;;5087382;28;20613;-77
2022/07/19 09:42:11;;;;;;;5.82;2.60;;;43.40;1.00;;;;;;5102306;28;20167;-77
2022/07/19 09:44:37;;;;;;;4.43;2.65;;;43.80;1.00;;;;;;5108721;28;20680;-76
2022/07/19 09:47:03;;;;;;;7.00;2.47;;;44.10;1.00;;;;;;5108592;28;20183;-76
2022/07/19 09:49:28;;;;;;;4.00;2.40;;;44.60;1.00;;;;;;5104203;28;20703;-76
2022/07/19 09:51:55;;;;;;;3.95;2.60;;;44.60;1.00;;;;;;5107064;28;20280;-77
2022/07/19 09:54:25;;;;;;;4.47;2.30;;;44.70;1.00;;;;;;5092719;28;20586;-78
2022/07/19 09:56:52;;;;;;;4.47;2.20;;;44.60;1.00;;;;;;5107450;28;20516;-77
2022/07/19 09:59:20;;;;;;;7.40;2.50;;;44.90;1.00;;;;;;5092424;28;20672;-78
2022/07/19 10:01:48;;;;;;;5.18;2.72;;;44.90;1.00;;;;;;5110485;28;20166;-78
2022/07/19 10:04:16;;;;;;;4.30;2.40;;;45.20;1.00;;;;;;5110281;28;20163;-76
2022/07/19 10:06:42;;;;;;;7.05;2.70;;;45.50;1.00;;;;;;5109519;28;20223;-77
2022/07/19 10:09:13;;;;;;;13.20;2.72;;;45.60;1.00;;;;;;5108665;28;20545;-77
2022/07/19 10:11:39;;;;;;;4.07;2.53;;;46.20;1.00;;;;;;5092431;28;20557;-79
2022/07/19 10:14:05;;;;;;;6.65;2.75;;;;;;;;;;5111309;28;20514;-78
2022/07/19 10:16:53;;;;;;;6.65;2.47;;;45.70;1.00;;;;;;5111013;28;20257;-78
2022/07/19 10:19:42;;;;;;;8.07;2.55;;;45.60;1.00;;;;;;5102291;27;20209;-79
2022/07/19 10:22:14;;;;;;;3.90;2.40;;;45.80;1.00;;;;;;5102540;28;20281;-77
2022/07/19 10:24:53;;;;;;;3.67;2.50;;;46.00;1.00;;;;;;5105335;28;20194;-76
2022/07/19 10:27:24;;;;;;;3.65;2.80;;;44.90;1.00;;;;;;5091049;28;20178;-76
2022/07/19 10:30:10;;;;;;;4.75;2.95;;;44.70;1.00;;;;;;5106104;28;20698;-77
2022/07/19 10:32:38;;;;;;;4.00;2.63;;;45.40;1.00;;;;;;5063186;28;20213;-77
2022/07/19 10:35:26;;;;;;;9.57;2.90;;;45.50;1.00;;;;;;5108004;28;20280;-76
2022/07/19 10:38:02;;;;;;;4.30;2.70;;;46.60;1.00;;;;;;5107144;28;20285;-76
2022/07/19 10:40:43;;;;;;;4.78;2.33;;;46.60;1.00;;;;;;5106481;28;20194;-77
2022/07/19 10:43:17;;;;;;;8.05;2.80;;;46.70;1.00;;;;;;5102053;28;20292;-77
2022/07/19 10:45:42;;;;;;;10.23;2.58;;;46.40;1.00;;;;;;5108876;28;20178;-76
2022/07/19 10:48:11;;;;;;;9.55;2.70;;;46.80;1.00;;;;;;5109763;28;20676;-76
2022/07/19 10:50:48;;;;;;;9.68;2.60;;;46.80;1.00;;;;;;5108935;28;20253;-77
2022/07/19 10:53:42;;;;;;;4.05;2.53;;;47.50;1.00;;;;;;5088931;28;20182;-78
2022/07/19 10:56:19;;;;;;;4.88;2.40;;;48.10;1.00;;;;;;5107221;28;20194;-78
2022/07/19 10:58:57;;;;;;;5.63;2.55;;;48.10;1.00;;;;;;5103933;28;20206;-77
2022/07/19 11:01:24;;;;;;;6.50;2.88;;;48.30;1.00;;;;;;5087260;28;20611;-77
2022/07/19 11:03:51;;;;;;;6.55;2.50;;;48.10;1.00;;;;;;5090419;28;20200;-79
2022/07/19 11:06:26;;;;;;;3.35;2.33;;;48.50;1.00;;;;;;5109066;28;20500;-75
2022/07/19 11:08:57;;;;;;;2.97;2.30;;;49.00;1.00;;;;;;5087145;28;20198;-77
2022/07/19 11:11:24;;;;;;;4.45;2.42;;;48.30;1.00;;;;;;5107696;28;20275;-78
2022/07/19 11:13:51;;;;;;;5.40;2.40;;;48.00;1.00;;;;;;5088688;28;20224;-78
2022/07/19 11:16:18;;;;;;;9.73;2.50;;;46.50;1.00;;;;;;5107977;28;20230;-78
2022/07/19 11:18:44;;;;;;;6.03;2.78;;;47.00;1.00;;;;;;5109104;28;20198;-78
2022/07/19 11:21:12;;;;;;;5.93;2.92;;;47.70;1.00;;;;;;5087669;28;20174;-78
2022/07/19 11:23:39;;;;;;;5.55;2.50;;;47.60;1.00;;;;;;5108139;28;20204;-78
2022/07/19 11:26:10;;;;;;;5.90;2.53;;;47.30;1.00;;;;;;5108425;28;20179;-77
2022/07/19 11:28:37;;;;;;;4.82;2.67;;;47.40;1.00;;;;;;5092259;28;20265;-77
2022/07/19 11:31:21;;;;;;;4.13;2.70;;;46.90;1.00;;;;;;5108537;28;20177;-77
2022/07/19 11:33:49;;;;;;;6.47;2.72;;;46.60;1.00;;;;;;5088137;28;20722;-77
2022/07/19 11:36:17;;;;;;;4.07;2.63;;;46.90;1.00;;;;;;5091766;28;20771;-77
2022/07/19 11:38:51;;;;;;;7.25;2.42;;;47.30;1.00;;;;;;5108962;28;20201;-78
2022/07/19 11:41:18;;;;;;;6.55;2.50;;;48.30;1.00;;;;;;5090179;28;20182;-78
2022/07/19 11:43:51;;;;;;;5.72;2.88;;;49.10;1.00;;;;;;5106028;28;20250;-78
2022/07/19 11:46:17;;;;;;;3.22;2.35;;;49.30;1.00;;;;;;5109837;28;20178;-78
2022/07/19 11:48:42;;;;;;;4.22;2.33;;;49.90;1.00;;;;;;5105135;28;20331;-78
2022/07/19 11:51:10;;;;;;;4.07;2.40;;;49.80;1.00;;;;;;5105609;28;20652;-78
2022/07/19 11:53:40;;;;;;;6.15;2.25;;;50.00;1.00;;;;;;5107705;28;20179;-78
2022/07/19 11:56:17;;;;;;;3.42;2.45;;;50.30;1.00;;;;;;5108242;28;20228;-78
2022/07/19 11:58:43;;;;;;;3.67;2.30;;;49.90;1.00;;;;;;5108578;28;20620;-79
2022/07/19 12:01:09;;;;;;;3.53;2.13;;;49.80;1.00;;;;;;5107528;28;20202;-78
2022/07/19 12:03:35;;;;;;;8.15;2.40;;;49.80;1.00;;;;;;5108603;28;20202;-77
2022/07/19 12:06:04;;;;;;;7.95;2.60;;;50.00;1.00;;;;;;5090579;28;20219;-77
2022/07/19 12:08:44;;;;;;;6.95;2.60;;;50.80;1.00;;;;;;5090197;28;20629;-78
2022/07/19 12:11:16;;;;;;;6.07;2.70;;;50.40;1.00;;;;;;5107700;28;20171;-79
2022/07/19 12:13:42;;;;;;;7.70;2.47;;;50.80;1.00;;;;;;5089895;28;20189;-78
2022/07/19 12:16:10;;;;;;;8.13;2.65;;;51.60;1.00;;;;;;5105619;28;20190;-78
2022/07/19 12:18:54;;;;;;;3.33;2.28;;;52.10;1.00;;;;;;5096699;28;20194;-77
2022/07/19 12:21:19;;;;;;;4.55;2.40;;;52.70;1.00;;;;;;5108266;28;20586;-78
2022/07/19 12:24:15;;;;;;;4.40;2.35;;;53.20;1.00;;;;;;5112332;28;20209;-78
2022/07/19 12:26:57;;;;;;;7.95;2.28;;;53.30;1.00;;;;;;5111276;28;20267;-78
2022/07/19 12:29:29;;;;;;;8.65;2.50;;;52.50;1.00;;;;;;5093496;28;20200;-78
2022/07/19 12:31:57;;;;;;;3.90;2.63;;;51.40;1.00;;;;;;5110633;28;20171;-78
2022/07/19 12:34:24;;;;;;;8.85;2.67;;;51.80;1.00;;;;;;5112155;28;20254;-78
2022/07/19 12:36:50;;;;;;;3.53;2.40;;;51.70;1.00;;;;;;5111994;28;20272;-78
2022/07/19 12:39:23;;;;;;;3.70;2.40;;;51.30;1.00;;;;;;5111296;28;20298;-77
2022/07/19 12:42:01;;;;;;;3.60;2.53;;;51.00;1.00;;;;;;5110804;28;20655;-78
2022/07/19 12:44:27;;;;;;;4.50;2.58;;;50.20;1.00;;;;;;5112115;28;20569;-77
2022/07/19 12:46:53;;;;;;;9.27;3.03;;;49.90;1.00;;;;;;5110581;28;20250;-78
2022/07/19 12:49:19;;;;;;;5.43;2.50;;;49.30;1.00;;;;;;5110367;28;20225;-78
2022/07/19 12:51:44;;;;;;;3.80;2.88;;;49.80;1.00;;;;;;5110415;28;20186;-78
2022/07/19 12:54:11;;;;;;;7.30;2.70;;;51.20;1.00;;;;;;5110551;28;20174;-78
2022/07/19 12:56:37;;;;;;;8.60;2.45;;;51.10;1.00;;;;;;5092231;28;20202;-78
2022/07/19 13:01:47;;;;;;;3.42;2.30;;;51.50;1.00;;;;;;5109292;28;20178;-78
2022/07/19 13:04:13;;;;;;;8.27;2.88;;;51.50;1.00;;;;;;5110920;28;20258;-78
2022/07/19 13:06:38;;;;;;;6.10;2.53;;;51.90;1.00;;;;;;5109554;28;20265;-78
2022/07/19 13:09:04;;;;;;;5.32;2.65;;;51.60;1.00;;;;;;5110018;28;20297;-77